Terminal Aerodrome Forecast
Issued by NWS Albany, NY

Home | Current Version | Previous Version | Text Only | Print | Product List | Glossary On
Versions: 1 2 3 4 5 6 7 8 9 10 11 12 13 14 15 16
030
FTUS41 KALY 240531
TAFALB
TAF
KALB 240531Z 2406/2506 00000KT P6SM SCT060 OVC120
     FM241200 01005KT P6SM VCSH SCT030 OVC060 PROB30 2416/2422 3SM
      -SHRA BR OVC030
     FM242300 24004KT P6SM BKN060
     FM250200 22004KT P6SM SCT080=

USA.gov is the U.S. government's official web portal to all federal, state and local government web resources and services.